Saugus, CA (91350)

9:06 PM PST on February 09, 2016 (GMT -0800)
AA6RV WX Station, California Canyons | | Change Station
CLOSE
Current Station
Personal Weather Station
Location: Canyon Country, CA
Elevation: 1928 ft
Nearby Weather Stations

Elev 1928 ft 34.46 °N, 118.39 °W | Updated 6 minutes ago

Clear
Clear
65.6 °F
Feels Like 65.6 °F
N
1.0
Wind Variable Wind from NE
Gusts 5.0 mph

Today
High -- | Low -- °F
--% Chance of Precip.
Yesterday
High -- | Low -- °F
Precip. -- in
Pressure 30.16 in
Visibility 20.0 miles
Clouds Clear
Dew Point 24 °F
Humidity 21%
Rainfall 0.00 in
Snow Depth Not available.
6:45 AM 5:30 PM
Waxing Crescent, 3% visible
METAR KWHP 100347Z 33008KT 20SM SKC 23/M04 A3016 RMK LAST
Pressure 30.16 in
Visibility 20.0 miles
Clouds Clear
Dew Point 24 °F
Humidity 21%
Rainfall 0.00 in
Snow Depth Not available.
6:45 AM 5:30 PM
Waxing Crescent, 3% visible
METAR KWHP 100347Z 33008KT 20SM SKC 23/M04 A3016 RMK LAST

10-Day Weather Forecast

Almanac

Astronomy

Feb. 09, 2016 Rise Set
Actual Time
Civil Twilight
Nautical Twilight
Astronomical Twilight
Moon
Length of Visible Light
Length of Day
Tomorrow will be .
, % of the Moon is Illuminated

Today's Extremes

State Highs State Lows

Community

WunderPhotos

Upload Photos

1,891,818 photos uploaded!

WunderBlog® & News

Nearby

Air Quality

  Air Quality AQ Index Pollutant
Not available.

Snow Depth

Station Depth Elevation

Earthquake Activity

City Distance Mag. Time & Date
Minimum magnitude displayed is 2.5.

Coastal Water Temperatures

Place Temperature

Stations

Nearby Weather Stations

Station Location Temp. Windchill Dew Point Humidity Wind Precip. Elev Updated Type
                   

Watches & Warnings

There are currently no watches in effect.